SBOSBO BEG / LYBE
Speedbird OnlineSpeedbird Online BEG / LYBE

Belgrade Nikola Tesla Airport
17:14 33.8°C

Location Belgrade, Serbia
Latitude: 44.8184013367
Longitude: 20.3090991974
Local Time 17:14 on 20 Jun 2024
UTC +2 hours (Europe/Belgrade)
Currency £1 equals RSD 138.69
METAR LYBE 201500Z 35006KT 290V030 CAVOK 34/17 Q1018 NOSIG
TAF TAF LYBE 201100Z 2012/2112 28008KT CAVOK TX36/2013Z TN22/2103Z BECMG 2105/2107 13010KT
Weather As Of 20 Jun 2024 17:14
Description Clear sky
Wind 13 km/h from North-West (330°)
Cloud Cover 0%
Precipitation Rain: none, Snow: none
Sunrise 04:52
Sunset 20:28
NOTAM 21 active NOTAM
Rotations During the last 90 days there were
36 flights from LHR
35 flights to LHR
Lounges Air Serbia Premium Lounge, Terminal 2
Business Club , Terminal 2
Web Airport Website | Wikipedia
Codes IATA: BEG
ICAO: LYBE
Altitude 102 Meter / 335 Feet
Distance 1,664 KM / 1,034 Miles
from London.
Runways
RunwayLength (m)Surface
123400Asphalt
303400Asphalt
Radio
TypeDescriptionFrequency
APPAPP119.1
APP133.1
ATISINFO122.925
TWRTWR118.1
Live ATC



Support Speedbird Online

© 2017-2024 Speedbird Online